JIA5576 KDCA-KBTV
Flight info
| Callsign | JIA5576 |
|---|---|
| Flight time | 1h 13m |
| Altitude | 31000 |
| Route | SOOKI6 SWANN BROSS Q419 RBV Q22 LLUND BIZEX CAM GRNMT BTV |
| Aircraft | CRJ9/M-SDFGIRWY/S |
Departure
| Time | 2026-04-26 20:25 |
|---|---|
| Airport | Ronald Reagan Washington National Airport (KDCA) |
Arrival
| Time | 2026-04-26 21:38 |
|---|---|
| Airport | Patrick Leahy Burlington International Airport (KBTV) |
| Time | Latitude | Longitude | Altitude | Speed | Heading |
|---|---|---|---|---|---|
| 2026-04-26 20:03 | 38.85666 | -77.04262 | 22 ft | 0 kts | 168° |
| 2026-04-26 20:14 | 38.85669 | -77.04263 | 22 ft | 2 kts | 167° |
| 2026-04-26 20:14 | 38.85686 | -77.04270 | 22 ft | 3 kts | 143° |
| 2026-04-26 20:15 | 38.85698 | -77.04288 | 22 ft | 3 kts | 104° |
| 2026-04-26 20:15 | 38.85699 | -77.04309 | 27 ft | 2 kts | 75° |
| 2026-04-26 20:15 | 38.85698 | -77.04314 | 26 ft | 1 kts | 72° |
| 2026-04-26 20:17 | 38.85699 | -77.04314 | 26 ft | 0 kts | 72° |
| 2026-04-26 20:17 | 38.85699 | -77.04311 | 27 ft | 1 kts | 72° |
| 2026-04-26 20:18 | 38.85702 | -77.04298 | 24 ft | 2 kts | 72° |
| 2026-04-26 20:18 | 38.85708 | -77.04275 | 23 ft | 4 kts | 72° |
| 2026-04-26 20:18 | 38.85716 | -77.04242 | 25 ft | 4 kts | 71° |
| 2026-04-26 20:18 | 38.85728 | -77.04196 | 22 ft | 6 kts | 71° |
| 2026-04-26 20:19 | 38.85739 | -77.04144 | 22 ft | 6 kts | 91° |
| 2026-04-26 20:19 | 38.85722 | -77.04100 | 25 ft | 5 kts | 137° |
| 2026-04-26 20:19 | 38.85692 | -77.04071 | 23 ft | 6 kts | 150° |
| 2026-04-26 20:19 | 38.85652 | -77.04048 | 25 ft | 7 kts | 160° |
| 2026-04-26 20:20 | 38.85600 | -77.04037 | 22 ft | 9 kts | 175° |
| 2026-04-26 20:20 | 38.85531 | -77.04025 | 22 ft | 11 kts | 165° |
| 2026-04-26 20:20 | 38.85448 | -77.04006 | 25 ft | 13 kts | 175° |
| 2026-04-26 20:20 | 38.85347 | -77.03997 | 22 ft | 16 kts | 175° |
| 2026-04-26 20:21 | 38.85232 | -77.03985 | 22 ft | 18 kts | 175° |
| 2026-04-26 20:21 | 38.85104 | -77.03973 | 22 ft | 19 kts | 174° |
| 2026-04-26 20:21 | 38.84974 | -77.03959 | 22 ft | 19 kts | 175° |
| 2026-04-26 20:21 | 38.84840 | -77.03946 | 22 ft | 19 kts | 175° |
| 2026-04-26 20:22 | 38.84736 | -77.03905 | 22 ft | 13 kts | 128° |
| 2026-04-26 20:22 | 38.84670 | -77.03862 | 26 ft | 10 kts | 179° |
| 2026-04-26 20:22 | 38.84601 | -77.03860 | 23 ft | 11 kts | 178° |
| 2026-04-26 20:22 | 38.84524 | -77.03853 | 22 ft | 11 kts | 177° |
| 2026-04-26 20:23 | 38.84446 | -77.03846 | 26 ft | 11 kts | 176° |
| 2026-04-26 20:23 | 38.84365 | -77.03839 | 23 ft | 12 kts | 176° |
| 2026-04-26 20:23 | 38.84280 | -77.03829 | 23 ft | 13 kts | 173° |
| 2026-04-26 20:23 | 38.84212 | -77.03765 | 22 ft | 13 kts | 125° |
| 2026-04-26 20:24 | 38.84229 | -77.03679 | 23 ft | 11 kts | 9° |
| 2026-04-26 20:24 | 38.84307 | -77.03690 | 21 ft | 12 kts | 355° |
| 2026-04-26 20:24 | 38.84481 | -77.03708 | 22 ft | 55 kts | 355° |
| 2026-04-26 20:24 | 38.85120 | -77.03772 | 22 ft | 126 kts | 355° |
| 2026-04-26 20:25 | 38.86159 | -77.03874 | 217 ft | 164 kts | 355° |
| 2026-04-26 20:25 | 38.86908 | -77.03955 | 805 ft | 161 kts | 356° |
| 2026-04-26 20:25 | 38.88432 | -77.04406 | 1810 ft | 182 kts | 326° |
| 2026-04-26 20:25 | 38.89226 | -77.05704 | 2645 ft | 188 kts | 309° |
| 2026-04-26 20:26 | 38.90031 | -77.07010 | 3471 ft | 191 kts | 309° |
| 2026-04-26 20:26 | 38.90748 | -77.08529 | 4106 ft | 210 kts | 301° |
| 2026-04-26 20:26 | 38.91442 | -77.10249 | 4776 ft | 225 kts | 303° |
| 2026-04-26 20:26 | 38.92526 | -77.11714 | 5506 ft | 229 kts | 330° |
| 2026-04-26 20:27 | 38.93870 | -77.12823 | 6578 ft | 230 kts | 332° |
| 2026-04-26 20:27 | 38.95244 | -77.13884 | 7553 ft | 232 kts | 335° |
| 2026-04-26 20:27 | 38.96701 | -77.14786 | 8504 ft | 233 kts | 345° |
| 2026-04-26 20:27 | 38.98331 | -77.14782 | 9120 ft | 247 kts | 18° |
| 2026-04-26 20:28 | 38.99992 | -77.13983 | 9784 ft | 262 kts | 21° |
| 2026-04-26 20:28 | 39.01616 | -77.12790 | 10442 ft | 277 kts | 35° |
| 2026-04-26 20:28 | 39.02874 | -77.10845 | 11108 ft | 293 kts | 60° |
| 2026-04-26 20:28 | 39.03704 | -77.08421 | 11958 ft | 298 kts | 65° |
| 2026-04-26 20:29 | 39.04412 | -77.05896 | 12794 ft | 306 kts | 68° |
| 2026-04-26 20:29 | 39.05005 | -77.03153 | 13126 ft | 330 kts | 74° |
| 2026-04-26 20:29 | 39.05438 | -77.00176 | 13604 ft | 347 kts | 78° |
| 2026-04-26 20:29 | 39.05803 | -76.97067 | 14265 ft | 354 kts | 78° |
| 2026-04-26 20:30 | 39.06153 | -76.93914 | 14978 ft | 358 kts | 78° |
| 2026-04-26 20:30 | 39.06517 | -76.90724 | 15674 ft | 362 kts | 77° |
| 2026-04-26 20:30 | 39.06783 | -76.88597 | 16105 ft | 365 kts | 77° |
| 2026-04-26 20:30 | 39.07210 | -76.85358 | 16628 ft | 373 kts | 76° |
| 2026-04-26 20:31 | 39.07635 | -76.82083 | 17425 ft | 372 kts | 76° |
| 2026-04-26 20:31 | 39.08191 | -76.77784 | 18258 ft | 377 kts | 76° |
| 2026-04-26 20:31 | 39.08479 | -76.75529 | 18657 ft | 379 kts | 76° |
| 2026-04-26 20:31 | 39.09054 | -76.71067 | 19361 ft | 384 kts | 76° |
| 2026-04-26 20:32 | 39.09489 | -76.67662 | 19883 ft | 387 kts | 76° |
| 2026-04-26 20:32 | 39.09787 | -76.65341 | 20200 ft | 390 kts | 76° |
| 2026-04-26 20:32 | 39.10227 | -76.61887 | 20703 ft | 393 kts | 76° |
| 2026-04-26 20:32 | 39.10669 | -76.58398 | 21182 ft | 396 kts | 76° |
| 2026-04-26 20:33 | 39.11114 | -76.54884 | 21672 ft | 400 kts | 77° |
| 2026-04-26 20:33 | 39.11563 | -76.51330 | 22137 ft | 403 kts | 77° |
| 2026-04-26 20:33 | 39.12015 | -76.47752 | 22549 ft | 407 kts | 77° |
| 2026-04-26 20:33 | 39.12469 | -76.44152 | 22997 ft | 410 kts | 77° |
| 2026-04-26 20:34 | 39.12925 | -76.40512 | 23435 ft | 414 kts | 77° |
| 2026-04-26 20:34 | 39.13385 | -76.36840 | 23851 ft | 417 kts | 77° |
| 2026-04-26 20:34 | 39.13845 | -76.33146 | 24203 ft | 419 kts | 77° |
| 2026-04-26 20:34 | 39.14307 | -76.29427 | 24551 ft | 422 kts | 77° |
| 2026-04-26 20:35 | 39.14772 | -76.25685 | 24902 ft | 424 kts | 77° |
| 2026-04-26 20:35 | 39.15236 | -76.21919 | 25223 ft | 427 kts | 77° |
| 2026-04-26 20:35 | 39.15696 | -76.18182 | 25541 ft | 429 kts | 78° |
| 2026-04-26 20:35 | 39.16149 | -76.14367 | 25863 ft | 432 kts | 78° |
| 2026-04-26 20:36 | 39.16595 | -76.10513 | 26039 ft | 438 kts | 79° |
| 2026-04-26 20:36 | 39.17032 | -76.06617 | 26335 ft | 441 kts | 79° |
| 2026-04-26 20:36 | 39.17471 | -76.02700 | 26633 ft | 443 kts | 79° |
| 2026-04-26 20:36 | 39.17915 | -75.98760 | 26915 ft | 446 kts | 79° |
| 2026-04-26 20:37 | 39.18360 | -75.94809 | 27288 ft | 446 kts | 78° |
| 2026-04-26 20:37 | 39.19174 | -75.90986 | 27523 ft | 441 kts | 62° |
| 2026-04-26 20:37 | 39.20741 | -75.87623 | 27797 ft | 437 kts | 50° |
| 2026-04-26 20:37 | 39.22598 | -75.84529 | 28051 ft | 437 kts | 46° |
| 2026-04-26 20:38 | 39.24690 | -75.81703 | 28298 ft | 435 kts | 38° |
| 2026-04-26 20:38 | 39.27008 | -75.79192 | 28557 ft | 435 kts | 35° |
| 2026-04-26 20:38 | 39.29389 | -75.76757 | 28663 ft | 441 kts | 34° |
| 2026-04-26 20:38 | 39.31780 | -75.74291 | 28869 ft | 444 kts | 36° |
| 2026-04-26 20:39 | 39.34157 | -75.71726 | 29158 ft | 444 kts | 37° |
| 2026-04-26 20:39 | 39.36429 | -75.69229 | 29681 ft | 440 kts | 37° |
| 2026-04-26 20:39 | 39.38742 | -75.66683 | 30281 ft | 433 kts | 36° |
| 2026-04-26 20:39 | 39.41039 | -75.64160 | 30562 ft | 433 kts | 36° |
| 2026-04-26 20:40 | 39.43335 | -75.61640 | 30817 ft | 433 kts | 36° |
| 2026-04-26 20:40 | 39.45629 | -75.59103 | 31007 ft | 435 kts | 36° |
| 2026-04-26 20:40 | 39.47940 | -75.56560 | 31096 ft | 439 kts | 36° |
| 2026-04-26 20:41 | 39.52606 | -75.51418 | 31166 ft | 440 kts | 36° |
| 2026-04-26 20:41 | 39.57267 | -75.46269 | 31184 ft | 441 kts | 36° |
| 2026-04-26 20:42 | 39.61859 | -75.41191 | 31176 ft | 441 kts | 37° |
| 2026-04-26 20:42 | 39.66503 | -75.36034 | 31175 ft | 441 kts | 36° |
| 2026-04-26 20:43 | 39.71142 | -75.30885 | 31174 ft | 442 kts | 36° |
| 2026-04-26 20:43 | 39.75823 | -75.25688 | 31176 ft | 442 kts | 36° |
| 2026-04-26 20:44 | 39.80389 | -75.20313 | 31186 ft | 445 kts | 43° |
| 2026-04-26 20:44 | 39.84430 | -75.14175 | 31174 ft | 446 kts | 46° |
| 2026-04-26 20:45 | 39.88430 | -75.08013 | 31175 ft | 445 kts | 45° |
| 2026-04-26 20:45 | 39.92457 | -75.02044 | 31175 ft | 446 kts | 45° |
| 2026-04-26 20:46 | 39.96541 | -74.95932 | 31181 ft | 448 kts | 46° |
| 2026-04-26 20:46 | 40.00214 | -74.89308 | 31179 ft | 453 kts | 53° |
| 2026-04-26 20:47 | 40.03587 | -74.82357 | 31175 ft | 453 kts | 53° |
| 2026-04-26 20:47 | 40.07053 | -74.75495 | 31179 ft | 453 kts | 52° |
| 2026-04-26 20:48 | 40.10538 | -74.68632 | 31171 ft | 453 kts | 52° |
| 2026-04-26 20:48 | 40.14023 | -74.61753 | 31178 ft | 454 kts | 52° |
| 2026-04-26 20:49 | 40.17493 | -74.54888 | 31179 ft | 453 kts | 52° |
| 2026-04-26 20:49 | 40.21275 | -74.48394 | 31180 ft | 443 kts | 40° |
| 2026-04-26 20:50 | 40.25951 | -74.43268 | 31192 ft | 436 kts | 33° |
| 2026-04-26 20:50 | 40.30708 | -74.38421 | 31193 ft | 435 kts | 34° |
| 2026-04-26 20:51 | 40.35419 | -74.33375 | 31187 ft | 434 kts | 34° |
| 2026-04-26 20:51 | 40.40086 | -74.28368 | 31176 ft | 433 kts | 34° |
| 2026-04-26 20:52 | 40.44695 | -74.23418 | 31180 ft | 434 kts | 34° |
| 2026-04-26 20:52 | 40.49362 | -74.18395 | 31195 ft | 434 kts | 34° |
| 2026-04-26 20:53 | 40.54019 | -74.13381 | 31184 ft | 432 kts | 34° |
| 2026-04-26 20:53 | 40.58656 | -74.08350 | 31172 ft | 433 kts | 34° |
| 2026-04-26 20:54 | 40.63343 | -74.03283 | 31196 ft | 438 kts | 34° |
| 2026-04-26 20:54 | 40.68038 | -73.98185 | 31217 ft | 442 kts | 34° |
| 2026-04-26 20:55 | 40.72690 | -73.93136 | 31197 ft | 441 kts | 34° |
| 2026-04-26 20:55 | 40.77415 | -73.88000 | 31173 ft | 439 kts | 34° |
| 2026-04-26 20:56 | 40.82121 | -73.82877 | 31167 ft | 438 kts | 34° |
| 2026-04-26 20:56 | 40.86977 | -73.78159 | 31188 ft | 427 kts | 22° |
| 2026-04-26 20:57 | 40.92388 | -73.75141 | 31181 ft | 419 kts | 13° |
| 2026-04-26 20:57 | 40.97819 | -73.72757 | 31176 ft | 418 kts | 13° |
| 2026-04-26 20:58 | 41.03308 | -73.70179 | 31190 ft | 418 kts | 14° |
| 2026-04-26 20:58 | 41.08769 | -73.67562 | 31178 ft | 417 kts | 14° |
| 2026-04-26 20:59 | 41.14188 | -73.64962 | 31182 ft | 416 kts | 14° |
| 2026-04-26 20:59 | 41.19601 | -73.62359 | 31173 ft | 416 kts | 14° |
| 2026-04-26 21:00 | 41.24956 | -73.59788 | 31189 ft | 415 kts | 14° |
| 2026-04-26 21:00 | 41.30460 | -73.57693 | 31173 ft | 408 kts | 4° |
| 2026-04-26 21:01 | 41.36064 | -73.56926 | 31173 ft | 404 kts | 359° |
| 2026-04-26 21:01 | 41.41665 | -73.56319 | 31171 ft | 404 kts | 0° |
| 2026-04-26 21:02 | 41.47263 | -73.55560 | 31172 ft | 404 kts | 1° |
| 2026-04-26 21:02 | 41.52819 | -73.54807 | 31146 ft | 404 kts | 1° |
| 2026-04-26 21:03 | 41.58408 | -73.54047 | 31146 ft | 403 kts | 1° |
| 2026-04-26 21:03 | 41.63985 | -73.53287 | 31136 ft | 403 kts | 1° |
| 2026-04-26 21:04 | 41.69550 | -73.52530 | 31140 ft | 402 kts | 1° |
| 2026-04-26 21:04 | 41.75115 | -73.51770 | 31139 ft | 402 kts | 1° |
| 2026-04-26 21:05 | 41.80676 | -73.51011 | 31162 ft | 402 kts | 1° |
| 2026-04-26 21:05 | 41.86238 | -73.50249 | 31161 ft | 402 kts | 2° |
| 2026-04-26 21:06 | 41.91807 | -73.49488 | 31137 ft | 402 kts | 2° |
| 2026-04-26 21:06 | 41.97376 | -73.48720 | 31142 ft | 402 kts | 2° |
| 2026-04-26 21:07 | 42.02938 | -73.47955 | 31135 ft | 401 kts | 2° |
| 2026-04-26 21:07 | 42.08495 | -73.47189 | 31113 ft | 401 kts | 2° |
| 2026-04-26 21:08 | 42.14054 | -73.46425 | 30913 ft | 404 kts | 2° |
| 2026-04-26 21:08 | 42.16861 | -73.46035 | 30538 ft | 405 kts | 2° |
| 2026-04-26 21:08 | 42.19667 | -73.45647 | 30173 ft | 405 kts | 2° |
| 2026-04-26 21:08 | 42.22429 | -73.45263 | 29767 ft | 404 kts | 3° |
| 2026-04-26 21:09 | 42.25225 | -73.44879 | 29347 ft | 404 kts | 3° |
| 2026-04-26 21:09 | 42.28024 | -73.44488 | 28935 ft | 404 kts | 3° |
| 2026-04-26 21:09 | 42.30825 | -73.44099 | 28523 ft | 405 kts | 3° |
| 2026-04-26 21:09 | 42.33626 | -73.43707 | 28127 ft | 405 kts | 3° |
| 2026-04-26 21:10 | 42.36432 | -73.43320 | 27733 ft | 405 kts | 3° |
| 2026-04-26 21:10 | 42.39233 | -73.42929 | 27342 ft | 403 kts | 3° |
| 2026-04-26 21:10 | 42.42019 | -73.42536 | 26966 ft | 402 kts | 4° |
| 2026-04-26 21:10 | 42.44803 | -73.42150 | 26586 ft | 402 kts | 4° |
| 2026-04-26 21:11 | 42.47580 | -73.41764 | 26213 ft | 401 kts | 4° |
| 2026-04-26 21:11 | 42.50356 | -73.41378 | 25843 ft | 401 kts | 4° |
| 2026-04-26 21:11 | 42.53037 | -73.41004 | 25492 ft | 400 kts | 4° |
| 2026-04-26 21:11 | 42.55891 | -73.40600 | 25112 ft | 400 kts | 4° |
| 2026-04-26 21:12 | 42.58656 | -73.40213 | 24753 ft | 399 kts | 4° |
| 2026-04-26 21:12 | 42.61409 | -73.39829 | 24410 ft | 395 kts | 4° |
| 2026-04-26 21:12 | 42.64129 | -73.39449 | 24053 ft | 392 kts | 4° |
| 2026-04-26 21:12 | 42.66840 | -73.39064 | 23694 ft | 389 kts | 4° |
| 2026-04-26 21:13 | 42.69526 | -73.38689 | 23286 ft | 387 kts | 4° |
| 2026-04-26 21:13 | 42.72195 | -73.38311 | 22852 ft | 385 kts | 4° |
| 2026-04-26 21:13 | 42.74860 | -73.37938 | 22459 ft | 383 kts | 4° |
| 2026-04-26 21:13 | 42.77505 | -73.37560 | 22062 ft | 382 kts | 5° |
| 2026-04-26 21:14 | 42.80145 | -73.37190 | 21672 ft | 380 kts | 4° |
| 2026-04-26 21:14 | 42.82772 | -73.36820 | 21280 ft | 379 kts | 5° |
| 2026-04-26 21:14 | 42.85393 | -73.36451 | 20904 ft | 378 kts | 5° |
| 2026-04-26 21:14 | 42.88014 | -73.36074 | 20530 ft | 377 kts | 5° |
| 2026-04-26 21:15 | 42.90603 | -73.35710 | 20151 ft | 372 kts | 5° |
| 2026-04-26 21:15 | 42.93163 | -73.35345 | 19787 ft | 368 kts | 5° |
| 2026-04-26 21:15 | 42.95695 | -73.34990 | 19415 ft | 364 kts | 5° |
| 2026-04-26 21:15 | 42.98203 | -73.34639 | 19054 ft | 361 kts | 5° |
| 2026-04-26 21:16 | 43.00672 | -73.34093 | 18684 ft | 359 kts | 11° |
| 2026-04-26 21:16 | 43.03091 | -73.33246 | 18330 ft | 357 kts | 15° |
| 2026-04-26 21:16 | 43.05455 | -73.32290 | 17925 ft | 356 kts | 15° |
| 2026-04-26 21:16 | 43.07833 | -73.31330 | 17541 ft | 356 kts | 15° |
| 2026-04-26 21:17 | 43.09408 | -73.30708 | 17280 ft | 356 kts | 14° |
| 2026-04-26 21:17 | 43.11773 | -73.29823 | 16902 ft | 355 kts | 14° |
| 2026-04-26 21:17 | 43.14140 | -73.28944 | 16517 ft | 355 kts | 14° |
| 2026-04-26 21:17 | 43.17299 | -73.27782 | 16020 ft | 355 kts | 14° |
| 2026-04-26 21:18 | 43.19685 | -73.26902 | 15651 ft | 355 kts | 14° |
| 2026-04-26 21:18 | 43.22064 | -73.26024 | 15283 ft | 353 kts | 14° |
| 2026-04-26 21:18 | 43.24432 | -73.25152 | 14926 ft | 352 kts | 15° |
| 2026-04-26 21:18 | 43.26027 | -73.24562 | 14677 ft | 351 kts | 14° |
| 2026-04-26 21:19 | 43.28377 | -73.23689 | 14319 ft | 349 kts | 14° |
| 2026-04-26 21:19 | 43.30673 | -73.22841 | 13974 ft | 348 kts | 14° |
| 2026-04-26 21:19 | 43.33003 | -73.21978 | 13566 ft | 346 kts | 15° |
| 2026-04-26 21:19 | 43.35327 | -73.21114 | 13165 ft | 345 kts | 15° |
| 2026-04-26 21:20 | 43.37637 | -73.20262 | 12774 ft | 343 kts | 15° |
| 2026-04-26 21:20 | 43.39913 | -73.19450 | 12388 ft | 341 kts | 15° |
| 2026-04-26 21:20 | 43.42204 | -73.18634 | 12001 ft | 339 kts | 15° |
| 2026-04-26 21:20 | 43.44480 | -73.17815 | 11623 ft | 337 kts | 15° |
| 2026-04-26 21:21 | 43.46738 | -73.16985 | 11275 ft | 334 kts | 16° |
| 2026-04-26 21:21 | 43.48958 | -73.16158 | 11105 ft | 326 kts | 16° |
| 2026-04-26 21:21 | 43.51116 | -73.15354 | 11020 ft | 319 kts | 15° |
| 2026-04-26 21:21 | 43.53217 | -73.14573 | 11010 ft | 303 kts | 15° |
| 2026-04-26 21:22 | 43.55176 | -73.13840 | 11131 ft | 281 kts | 16° |
| 2026-04-26 21:22 | 43.56989 | -73.13166 | 11165 ft | 266 kts | 16° |
| 2026-04-26 21:22 | 43.58764 | -73.12483 | 11133 ft | 265 kts | 16° |
| 2026-04-26 21:23 | 43.62329 | -73.11123 | 11134 ft | 266 kts | 16° |
| 2026-04-26 21:23 | 43.64118 | -73.10436 | 11141 ft | 269 kts | 16° |
| 2026-04-26 21:23 | 43.65938 | -73.09748 | 11131 ft | 273 kts | 16° |
| 2026-04-26 21:23 | 43.67787 | -73.09056 | 11149 ft | 277 kts | 16° |
| 2026-04-26 21:24 | 43.69662 | -73.08356 | 11162 ft | 281 kts | 15° |
| 2026-04-26 21:24 | 43.71560 | -73.07649 | 11179 ft | 285 kts | 16° |
| 2026-04-26 21:24 | 43.73480 | -73.06932 | 11172 ft | 284 kts | 16° |
| 2026-04-26 21:24 | 43.75376 | -73.06223 | 11175 ft | 281 kts | 16° |
| 2026-04-26 21:25 | 43.77263 | -73.05509 | 11176 ft | 280 kts | 16° |
| 2026-04-26 21:25 | 43.79140 | -73.04798 | 11172 ft | 280 kts | 16° |
| 2026-04-26 21:25 | 43.81013 | -73.04094 | 11173 ft | 279 kts | 16° |
| 2026-04-26 21:25 | 43.82836 | -73.03404 | 11160 ft | 278 kts | 16° |
| 2026-04-26 21:26 | 43.84698 | -73.02702 | 11157 ft | 277 kts | 16° |
| 2026-04-26 21:26 | 43.86562 | -73.02001 | 11152 ft | 277 kts | 16° |
| 2026-04-26 21:26 | 43.88425 | -73.01299 | 11149 ft | 278 kts | 16° |
| 2026-04-26 21:26 | 43.90293 | -73.00593 | 11160 ft | 279 kts | 16° |
| 2026-04-26 21:27 | 43.92166 | -72.99888 | 11153 ft | 279 kts | 16° |
| 2026-04-26 21:27 | 43.94041 | -72.99187 | 11163 ft | 279 kts | 17° |
| 2026-04-26 21:27 | 43.95916 | -72.98482 | 11170 ft | 280 kts | 16° |
| 2026-04-26 21:27 | 43.97794 | -72.97774 | 11168 ft | 280 kts | 16° |
| 2026-04-26 21:28 | 43.99703 | -72.97054 | 10874 ft | 285 kts | 16° |
| 2026-04-26 21:28 | 44.01603 | -72.96324 | 10577 ft | 281 kts | 17° |
| 2026-04-26 21:28 | 44.03445 | -72.95611 | 10308 ft | 277 kts | 16° |
| 2026-04-26 21:28 | 44.05288 | -72.94889 | 10003 ft | 273 kts | 17° |
| 2026-04-26 21:29 | 44.07075 | -72.94195 | 9704 ft | 270 kts | 17° |
| 2026-04-26 21:29 | 44.08626 | -72.93594 | 9606 ft | 261 kts | 17° |
| 2026-04-26 21:29 | 44.10328 | -72.92917 | 9586 ft | 249 kts | 17° |
| 2026-04-26 21:29 | 44.11998 | -72.92247 | 9430 ft | 253 kts | 17° |
| 2026-04-26 21:30 | 44.13713 | -72.91570 | 9156 ft | 259 kts | 17° |
| 2026-04-26 21:30 | 44.15329 | -72.90506 | 8852 ft | 259 kts | 36° |
| 2026-04-26 21:30 | 44.16723 | -72.88925 | 8567 ft | 257 kts | 42° |
| 2026-04-26 21:30 | 44.18040 | -72.87256 | 8269 ft | 255 kts | 43° |
| 2026-04-26 21:31 | 44.19330 | -72.85573 | 7958 ft | 253 kts | 44° |
| 2026-04-26 21:31 | 44.20615 | -72.83913 | 7654 ft | 251 kts | 43° |
| 2026-04-26 21:31 | 44.21912 | -72.82315 | 7352 ft | 247 kts | 41° |
| 2026-04-26 21:31 | 44.23333 | -72.81019 | 6996 ft | 246 kts | 18° |
| 2026-04-26 21:32 | 44.25010 | -72.81071 | 6665 ft | 246 kts | 341° |
| 2026-04-26 21:32 | 44.26508 | -72.82196 | 6393 ft | 243 kts | 330° |
| 2026-04-26 21:32 | 44.27802 | -72.83686 | 6076 ft | 240 kts | 316° |
| 2026-04-26 21:32 | 44.28893 | -72.85421 | 5759 ft | 236 kts | 311° |
| 2026-04-26 21:33 | 44.29909 | -72.87188 | 5454 ft | 231 kts | 310° |
| 2026-04-26 21:33 | 44.30916 | -72.88928 | 5104 ft | 231 kts | 312° |
| 2026-04-26 21:33 | 44.31905 | -72.90581 | 4761 ft | 229 kts | 311° |
| 2026-04-26 21:33 | 44.32923 | -72.92288 | 4530 ft | 229 kts | 314° |
| 2026-04-26 21:34 | 44.33993 | -72.93932 | 4235 ft | 229 kts | 315° |
| 2026-04-26 21:34 | 44.35026 | -72.95484 | 3958 ft | 228 kts | 315° |
| 2026-04-26 21:34 | 44.36068 | -72.97144 | 3681 ft | 228 kts | 313° |
| 2026-04-26 21:34 | 44.37118 | -72.98805 | 3355 ft | 228 kts | 314° |
| 2026-04-26 21:35 | 44.38017 | -73.00288 | 3032 ft | 227 kts | 312° |
| 2026-04-26 21:35 | 44.38992 | -73.01909 | 2719 ft | 217 kts | 313° |
| 2026-04-26 21:35 | 44.39966 | -73.03453 | 2362 ft | 206 kts | 314° |
| 2026-04-26 21:35 | 44.40882 | -73.04941 | 2027 ft | 198 kts | 311° |
| 2026-04-26 21:36 | 44.41742 | -73.06387 | 1745 ft | 183 kts | 312° |
| 2026-04-26 21:36 | 44.42467 | -73.07580 | 1524 ft | 142 kts | 312° |
| 2026-04-26 21:36 | 44.43063 | -73.08486 | 1230 ft | 127 kts | 319° |
| 2026-04-26 21:36 | 44.43672 | -73.09429 | 1109 ft | 126 kts | 308° |
| 2026-04-26 21:37 | 44.44174 | -73.10361 | 1002 ft | 124 kts | 310° |
| 2026-04-26 21:37 | 44.44757 | -73.11297 | 942 ft | 129 kts | 313° |
| 2026-04-26 21:37 | 44.45379 | -73.12269 | 873 ft | 136 kts | 313° |
| 2026-04-26 21:37 | 44.45967 | -73.13222 | 621 ft | 122 kts | 312° |
| 2026-04-26 21:38 | 44.46520 | -73.14099 | 409 ft | 120 kts | 313° |
| 2026-04-26 21:38 | 44.47031 | -73.14916 | 344 ft | 96 kts | 311° |
| 2026-04-26 21:38 | 44.47397 | -73.15506 | 352 ft | 68 kts | 311° |
| 2026-04-26 21:38 | 44.47659 | -73.15923 | 338 ft | 49 kts | 311° |
| 2026-04-26 21:39 | 44.47851 | -73.16238 | 356 ft | 34 kts | 309° |
| 2026-04-26 21:39 | 44.47945 | -73.16439 | 349 ft | 16 kts | 257° |
| 2026-04-26 21:39 | 44.47895 | -73.16528 | 336 ft | 11 kts | 221° |
| 2026-04-26 21:39 | 44.47837 | -73.16507 | 340 ft | 9 kts | 127° |
| 2026-04-26 21:40 | 44.47799 | -73.16444 | 348 ft | 9 kts | 131° |
| 2026-04-26 21:40 | 44.47754 | -73.16373 | 338 ft | 11 kts | 131° |
| 2026-04-26 21:40 | 44.47692 | -73.16274 | 335 ft | 15 kts | 131° |
| 2026-04-26 21:40 | 44.47620 | -73.16156 | 336 ft | 17 kts | 131° |
| 2026-04-26 21:41 | 44.47539 | -73.16024 | 336 ft | 19 kts | 130° |
| 2026-04-26 21:41 | 44.47452 | -73.15884 | 335 ft | 19 kts | 131° |
| 2026-04-26 21:41 | 44.47364 | -73.15743 | 339 ft | 19 kts | 131° |
| 2026-04-26 21:41 | 44.47281 | -73.15609 | 348 ft | 17 kts | 131° |
| 2026-04-26 21:42 | 44.47200 | -73.15477 | 348 ft | 18 kts | 130° |
| 2026-04-26 21:42 | 44.47114 | -73.15373 | 351 ft | 15 kts | 166° |
| 2026-04-26 21:42 | 44.47006 | -73.15349 | 338 ft | 17 kts | 172° |
| 2026-04-26 21:42 | 44.46902 | -73.15333 | 338 ft | 4 kts | 204° |
| 2026-04-26 21:43 | 44.46893 | -73.15349 | 340 ft | 2 kts | 254° |
| 2026-04-26 21:43 | 44.46892 | -73.15367 | 340 ft | 3 kts | 266° |
| 2026-04-26 21:43 | 44.46891 | -73.15395 | 340 ft | 0 kts | 265° |
| 2026-04-26 21:43 | 44.46890 | -73.15404 | 340 ft | 1 kts | 265° |